sensor_id;sensor_type;location;lat;lon;timestamp;P1;durP1;ratioP1;P2;durP2;ratioP2
44536;SDS011;30245;51.966;6.292;2023-02-28T00:00:27;2.43;;;1.10;;
44536;SDS011;30245;51.966;6.292;2023-02-28T00:02:53;4.07;;;1.10;;
44536;SDS011;30245;51.966;6.292;2023-02-28T00:05:19;3.43;;;1.23;;
44536;SDS011;30245;51.966;6.292;2023-02-28T00:07:47;2.72;;;0.85;;
44536;SDS011;30245;51.966;6.292;2023-02-28T00:10:15;2.73;;;0.83;;
44536;SDS011;30245;51.966;6.292;2023-02-28T00:12:46;3.20;;;1.30;;
44536;SDS011;30245;51.966;6.292;2023-02-28T00:15:13;1.70;;;1.10;;
44536;SDS011;30245;51.966;6.292;2023-02-28T00:17:38;2.40;;;0.83;;
44536;SDS011;30245;51.966;6.292;2023-02-28T00:20:05;2.27;;;0.93;;
44536;SDS011;30245;51.966;6.292;2023-02-28T00:22:33;1.80;;;0.73;;
44536;SDS011;30245;51.966;6.292;2023-02-28T00:24:59;4.93;;;1.87;;
44536;SDS011;30245;51.966;6.292;2023-02-28T00:27:25;2.90;;;1.00;;
44536;SDS011;30245;51.966;6.292;2023-02-28T00:29:50;4.03;;;1.53;;
44536;SDS011;30245;51.966;6.292;2023-02-28T00:32:16;1.77;;;0.70;;
44536;SDS011;30245;51.966;6.292;2023-02-28T00:34:42;2.37;;;0.70;;
44536;SDS011;30245;51.966;6.292;2023-02-28T00:37:08;2.73;;;1.33;;
44536;SDS011;30245;51.966;6.292;2023-02-28T00:39:37;3.08;;;1.17;;
44536;SDS011;30245;51.966;6.292;2023-02-28T00:42:03;4.93;;;1.60;;
44536;SDS011;30245;51.966;6.292;2023-02-28T00:44:30;6.70;;;1.27;;
44536;SDS011;30245;51.966;6.292;2023-02-28T00:46:56;2.27;;;0.77;;
44536;SDS011;30245;51.966;6.292;2023-02-28T00:49:22;2.30;;;1.13;;
44536;SDS011;30245;51.966;6.292;2023-02-28T00:51:48;1.77;;;0.90;;
44536;SDS011;30245;51.966;6.292;2023-02-28T00:54:13;2.20;;;0.77;;
44536;SDS011;30245;51.966;6.292;2023-02-28T00:56:39;1.97;;;0.80;;
44536;SDS011;30245;51.966;6.292;2023-02-28T00:59:05;2.23;;;1.63;;
44536;SDS011;30245;51.966;6.292;2023-02-28T01:01:30;1.47;;;1.10;;
44536;SDS011;30245;51.966;6.292;2023-02-28T01:03:56;1.90;;;0.70;;
44536;SDS011;30245;51.966;6.292;2023-02-28T01:06:22;2.73;;;1.27;;
44536;SDS011;30245;51.966;6.292;2023-02-28T01:08:47;3.70;;;1.00;;
44536;SDS011;30245;51.966;6.292;2023-02-28T01:11:15;3.63;;;1.03;;
44536;SDS011;30245;51.966;6.292;2023-02-28T01:13:42;2.17;;;1.00;;
44536;SDS011;30245;51.966;6.292;2023-02-28T01:16:09;4.30;;;1.10;;
44536;SDS011;30245;51.966;6.292;2023-02-28T01:18:35;2.80;;;1.20;;
44536;SDS011;30245;51.966;6.292;2023-02-28T01:21:05;2.60;;;1.30;;
44536;SDS011;30245;51.966;6.292;2023-02-28T01:23:32;3.37;;;1.30;;
44536;SDS011;30245;51.966;6.292;2023-02-28T01:26:08;2.90;;;1.63;;
44536;SDS011;30245;51.966;6.292;2023-02-28T01:28:36;1.60;;;1.00;;
44536;SDS011;30245;51.966;6.292;2023-02-28T01:31:01;5.80;;;1.83;;
44536;SDS011;30245;51.966;6.292;2023-02-28T01:33:27;3.10;;;1.40;;
44536;SDS011;30245;51.966;6.292;2023-02-28T01:36:06;2.13;;;1.20;;
44536;SDS011;30245;51.966;6.292;2023-02-28T01:38:37;2.67;;;1.27;;
44536;SDS011;30245;51.966;6.292;2023-02-28T01:41:03;1.60;;;1.30;;
44536;SDS011;30245;51.966;6.292;2023-02-28T01:46:10;2.50;;;1.60;;
44536;SDS011;30245;51.966;6.292;2023-02-28T01:48:38;3.37;;;1.30;;
44536;SDS011;30245;51.966;6.292;2023-02-28T01:51:11;2.10;;;1.53;;
44536;SDS011;30245;51.966;6.292;2023-02-28T01:53:45;2.10;;;1.50;;
44536;SDS011;30245;51.966;6.292;2023-02-28T01:56:16;3.03;;;1.83;;
44536;SDS011;30245;51.966;6.292;2023-02-28T01:58:49;4.20;;;1.63;;
44536;SDS011;30245;51.966;6.292;2023-02-28T02:01:17;3.03;;;1.73;;
44536;SDS011;30245;51.966;6.292;2023-02-28T02:03:50;2.30;;;1.10;;
44536;SDS011;30245;51.966;6.292;2023-02-28T02:06:23;3.73;;;1.60;;
44536;SDS011;30245;51.966;6.292;2023-02-28T02:08:52;4.60;;;1.70;;
44536;SDS011;30245;51.966;6.292;2023-02-28T02:11:18;3.47;;;1.73;;
44536;SDS011;30245;51.966;6.292;2023-02-28T02:22:20;2.73;;;1.60;;
44536;SDS011;30245;51.966;6.292;2023-02-28T02:47:06;2.23;;;1.20;;
44536;SDS011;30245;51.966;6.292;2023-02-28T02:49:37;3.57;;;1.43;;
44536;SDS011;30245;51.966;6.292;2023-02-28T02:52:07;2.17;;;1.37;;
44536;SDS011;30245;51.966;6.292;2023-02-28T02:54:37;2.43;;;1.40;;
44536;SDS011;30245;51.966;6.292;2023-02-28T02:57:11;4.17;;;1.17;;
44536;SDS011;30245;51.966;6.292;2023-02-28T02:59:39;1.50;;;0.90;;
44536;SDS011;30245;51.966;6.292;2023-02-28T03:02:07;3.93;;;1.23;;
44536;SDS011;30245;51.966;6.292;2023-02-28T03:04:40;4.03;;;1.27;;
44536;SDS011;30245;51.966;6.292;2023-02-28T03:07:08;2.60;;;1.20;;
44536;SDS011;30245;51.966;6.292;2023-02-28T03:09:34;3.37;;;1.37;;
44536;SDS011;30245;51.966;6.292;2023-02-28T03:12:03;2.72;;;1.45;;
44536;SDS011;30245;51.966;6.292;2023-02-28T03:17:03;1.77;;;1.05;;
44536;SDS011;30245;51.966;6.292;2023-02-28T03:19:59;2.10;;;1.20;;
44536;SDS011;30245;51.966;6.292;2023-02-28T03:22:45;3.07;;;1.20;;
44536;SDS011;30245;51.966;6.292;2023-02-28T03:25:53;2.87;;;1.07;;
44536;SDS011;30245;51.966;6.292;2023-02-28T03:28:43;1.83;;;1.00;;
44536;SDS011;30245;51.966;6.292;2023-02-28T03:34:03;3.00;;;0.83;;
44536;SDS011;30245;51.966;6.292;2023-02-28T03:36:41;3.80;;;1.50;;
44536;SDS011;30245;51.966;6.292;2023-02-28T03:39:20;2.13;;;1.00;;
44536;SDS011;30245;51.966;6.292;2023-02-28T03:42:31;4.60;;;1.60;;
44536;SDS011;30245;51.966;6.292;2023-02-28T03:44:52;3.07;;;1.20;;
44536;SDS011;30245;51.966;6.292;2023-02-28T03:49:57;2.00;;;1.07;;
44536;SDS011;30245;51.966;6.292;2023-02-28T03:52:32;2.27;;;1.37;;
44536;SDS011;30245;51.966;6.292;2023-02-28T03:55:01;2.60;;;1.17;;
44536;SDS011;30245;51.966;6.292;2023-02-28T04:00:17;2.23;;;1.30;;
44536;SDS011;30245;51.966;6.292;2023-02-28T04:02:54;2.73;;;1.43;;
44536;SDS011;30245;51.966;6.292;2023-02-28T04:05:20;3.40;;;1.80;;
44536;SDS011;30245;51.966;6.292;2023-02-28T04:07:46;1.57;;;0.80;;
44536;SDS011;30245;51.966;6.292;2023-02-28T04:10:13;4.57;;;1.30;;
44536;SDS011;30245;51.966;6.292;2023-02-28T04:12:40;2.10;;;1.13;;
44536;SDS011;30245;51.966;6.292;2023-02-28T04:15:07;2.43;;;1.23;;
44536;SDS011;30245;51.966;6.292;2023-02-28T04:17:33;2.10;;;1.10;;
44536;SDS011;30245;51.966;6.292;2023-02-28T04:19:58;2.60;;;1.53;;
44536;SDS011;30245;51.966;6.292;2023-02-28T04:22:24;3.43;;;1.00;;
44536;SDS011;30245;51.966;6.292;2023-02-28T04:24:52;1.80;;;0.75;;
44536;SDS011;30245;51.966;6.292;2023-02-28T04:27:19;3.50;;;1.30;;
44536;SDS011;30245;51.966;6.292;2023-02-28T04:29:46;4.03;;;1.10;;
44536;SDS011;30245;51.966;6.292;2023-02-28T04:32:11;2.37;;;1.17;;
44536;SDS011;30245;51.966;6.292;2023-02-28T04:34:37;3.93;;;0.97;;
44536;SDS011;30245;51.966;6.292;2023-02-28T04:37:03;4.37;;;0.80;;
44536;SDS011;30245;51.966;6.292;2023-02-28T04:39:30;4.17;;;1.07;;
44536;SDS011;30245;51.966;6.292;2023-02-28T04:41:59;3.97;;;1.13;;
44536;SDS011;30245;51.966;6.292;2023-02-28T04:44:24;2.77;;;1.57;;
44536;SDS011;30245;51.966;6.292;2023-02-28T04:46:50;3.00;;;0.83;;
44536;SDS011;30245;51.966;6.292;2023-02-28T04:49:15;3.03;;;1.67;;
44536;SDS011;30245;51.966;6.292;2023-02-28T04:51:41;2.73;;;1.00;;
44536;SDS011;30245;51.966;6.292;2023-02-28T04:54:07;1.93;;;0.77;;
44536;SDS011;30245;51.966;6.292;2023-02-28T04:56:33;1.80;;;1.03;;
44536;SDS011;30245;51.966;6.292;2023-02-28T04:58:59;2.07;;;0.87;;
44536;SDS011;30245;51.966;6.292;2023-02-28T05:01:25;4.13;;;1.40;;
44536;SDS011;30245;51.966;6.292;2023-02-28T05:03:51;4.13;;;1.37;;
44536;SDS011;30245;51.966;6.292;2023-02-28T05:06:19;2.03;;;1.00;;
44536;SDS011;30245;51.966;6.292;2023-02-28T05:08:45;2.10;;;1.07;;
44536;SDS011;30245;51.966;6.292;2023-02-28T05:11:16;3.07;;;1.10;;
44536;SDS011;30245;51.966;6.292;2023-02-28T05:13:45;2.10;;;1.43;;
44536;SDS011;30245;51.966;6.292;2023-02-28T05:16:11;1.57;;;0.80;;
44536;SDS011;30245;51.966;6.292;2023-02-28T05:18:37;3.27;;;1.17;;
44536;SDS011;30245;51.966;6.292;2023-02-28T05:21:03;3.77;;;0.97;;
44536;SDS011;30245;51.966;6.292;2023-02-28T05:23:28;3.33;;;1.27;;
44536;SDS011;30245;51.966;6.292;2023-02-28T05:25:54;3.47;;;1.17;;
44536;SDS011;30245;51.966;6.292;2023-02-28T05:28:20;1.83;;;1.10;;
44536;SDS011;30245;51.966;6.292;2023-02-28T05:30:46;11.47;;;1.90;;
44536;SDS011;30245;51.966;6.292;2023-02-28T05:33:12;4.23;;;0.70;;
44536;SDS011;30245;51.966;6.292;2023-02-28T05:35:41;5.43;;;0.80;;
44536;SDS011;30245;51.966;6.292;2023-02-28T05:38:10;1.97;;;1.10;;
44536;SDS011;30245;51.966;6.292;2023-02-28T05:40:37;1.90;;;0.73;;
44536;SDS011;30245;51.966;6.292;2023-02-28T05:45:30;2.50;;;0.70;;
44536;SDS011;30245;51.966;6.292;2023-02-28T05:47:55;1.93;;;0.80;;
44536;SDS011;30245;51.966;6.292;2023-02-28T05:50:21;1.83;;;0.90;;
44536;SDS011;30245;51.966;6.292;2023-02-28T05:52:50;1.33;;;1.03;;
44536;SDS011;30245;51.966;6.292;2023-02-28T05:55:16;5.20;;;1.20;;
44536;SDS011;30245;51.966;6.292;2023-02-28T05:57:41;1.70;;;1.23;;
44536;SDS011;30245;51.966;6.292;2023-02-28T06:00:07;2.60;;;0.73;;
44536;SDS011;30245;51.966;6.292;2023-02-28T06:02:34;2.20;;;1.00;;
44536;SDS011;30245;51.966;6.292;2023-02-28T06:04:59;4.50;;;1.03;;
44536;SDS011;30245;51.966;6.292;2023-02-28T06:07:25;4.83;;;1.20;;
44536;SDS011;30245;51.966;6.292;2023-02-28T06:09:50;2.63;;;1.03;;
44536;SDS011;30245;51.966;6.292;2023-02-28T06:12:16;2.27;;;0.90;;
44536;SDS011;30245;51.966;6.292;2023-02-28T06:14:42;2.30;;;1.13;;
44536;SDS011;30245;51.966;6.292;2023-02-28T06:17:08;3.30;;;1.03;;
44536;SDS011;30245;51.966;6.292;2023-02-28T06:19:36;4.10;;;1.47;;
44536;SDS011;30245;51.966;6.292;2023-02-28T06:24:29;2.83;;;1.43;;
44536;SDS011;30245;51.966;6.292;2023-02-28T06:26:56;2.10;;;0.90;;
44536;SDS011;30245;51.966;6.292;2023-02-28T06:29:23;2.73;;;1.03;;
44536;SDS011;30245;51.966;6.292;2023-02-28T06:31:49;3.00;;;1.10;;
44536;SDS011;30245;51.966;6.292;2023-02-28T06:34:15;2.23;;;1.30;;
44536;SDS011;30245;51.966;6.292;2023-02-28T06:36:41;2.83;;;0.80;;
44536;SDS011;30245;51.966;6.292;2023-02-28T06:39:08;2.47;;;0.90;;
44536;SDS011;30245;51.966;6.292;2023-02-28T06:41:34;1.57;;;0.93;;
44536;SDS011;30245;51.966;6.292;2023-02-28T06:44:05;3.10;;;1.30;;
44536;SDS011;30245;51.966;6.292;2023-02-28T06:46:36;1.80;;;1.00;;
44536;SDS011;30245;51.966;6.292;2023-02-28T06:49:03;3.60;;;1.57;;
44536;SDS011;30245;51.966;6.292;2023-02-28T06:51:28;2.60;;;0.93;;
44536;SDS011;30245;51.966;6.292;2023-02-28T06:53:54;2.13;;;1.23;;
44536;SDS011;30245;51.966;6.292;2023-02-28T06:56:20;6.47;;;1.20;;
44536;SDS011;30245;51.966;6.292;2023-02-28T06:58:46;2.70;;;1.30;;
44536;SDS011;30245;51.966;6.292;2023-02-28T07:01:13;2.03;;;0.90;;
44536;SDS011;30245;51.966;6.292;2023-02-28T07:03:39;1.77;;;1.43;;
44536;SDS011;30245;51.966;6.292;2023-02-28T07:06:05;2.83;;;1.67;;
44536;SDS011;30245;51.966;6.292;2023-02-28T07:08:31;1.93;;;0.97;;
44536;SDS011;30245;51.966;6.292;2023-02-28T07:10:58;2.73;;;1.20;;
44536;SDS011;30245;51.966;6.292;2023-02-28T07:13:24;2.53;;;1.07;;
44536;SDS011;30245;51.966;6.292;2023-02-28T07:15:56;1.63;;;1.10;;
44536;SDS011;30245;51.966;6.292;2023-02-28T07:18:23;2.37;;;1.00;;
44536;SDS011;30245;51.966;6.292;2023-02-28T07:20:49;4.20;;;1.00;;
44536;SDS011;30245;51.966;6.292;2023-02-28T07:23:15;2.83;;;0.83;;
44536;SDS011;30245;51.966;6.292;2023-02-28T07:25:40;3.33;;;0.70;;
44536;SDS011;30245;51.966;6.292;2023-02-28T07:28:06;6.70;;;1.33;;
44536;SDS011;30245;51.966;6.292;2023-02-28T07:30:31;2.33;;;0.80;;
44536;SDS011;30245;51.966;6.292;2023-02-28T07:32:57;2.07;;;0.60;;
44536;SDS011;30245;51.966;6.292;2023-02-28T07:35:23;3.23;;;0.90;;
44536;SDS011;30245;51.966;6.292;2023-02-28T07:37:48;2.27;;;1.00;;
44536;SDS011;30245;51.966;6.292;2023-02-28T07:40:14;3.40;;;0.73;;
44536;SDS011;30245;51.966;6.292;2023-02-28T07:42:40;1.93;;;0.70;;
44536;SDS011;30245;51.966;6.292;2023-02-28T07:45:07;1.83;;;1.27;;
44536;SDS011;30245;51.966;6.292;2023-02-28T07:47:36;1.90;;;1.10;;
44536;SDS011;30245;51.966;6.292;2023-02-28T07:50:05;2.75;;;0.90;;
44536;SDS011;30245;51.966;6.292;2023-02-28T07:52:32;4.20;;;1.40;;
44536;SDS011;30245;51.966;6.292;2023-02-28T07:54:57;1.80;;;0.80;;
44536;SDS011;30245;51.966;6.292;2023-02-28T07:57:23;2.67;;;1.13;;
44536;SDS011;30245;51.966;6.292;2023-02-28T07:59:49;1.60;;;0.77;;
44536;SDS011;30245;51.966;6.292;2023-02-28T08:02:15;3.73;;;0.87;;
44536;SDS011;30245;51.966;6.292;2023-02-28T08:04:42;4.33;;;0.67;;
44536;SDS011;30245;51.966;6.292;2023-02-28T08:07:08;2.20;;;0.93;;
44536;SDS011;30245;51.966;6.292;2023-02-28T08:09:38;3.03;;;1.10;;
44536;SDS011;30245;51.966;6.292;2023-02-28T08:12:04;1.70;;;0.60;;
44536;SDS011;30245;51.966;6.292;2023-02-28T08:14:30;1.60;;;0.90;;
44536;SDS011;30245;51.966;6.292;2023-02-28T08:16:56;1.97;;;0.80;;
44536;SDS011;30245;51.966;6.292;2023-02-28T08:19:21;1.47;;;0.67;;
44536;SDS011;30245;51.966;6.292;2023-02-28T08:21:47;2.23;;;0.80;;
44536;SDS011;30245;51.966;6.292;2023-02-28T08:24:13;1.63;;;0.73;;
44536;SDS011;30245;51.966;6.292;2023-02-28T08:26:38;2.00;;;0.80;;
44536;SDS011;30245;51.966;6.292;2023-02-28T08:29:04;2.07;;;0.87;;
44536;SDS011;30245;51.966;6.292;2023-02-28T08:31:29;1.27;;;0.60;;
44536;SDS011;30245;51.966;6.292;2023-02-28T08:33:55;2.67;;;0.60;;
44536;SDS011;30245;51.966;6.292;2023-02-28T08:36:23;4.22;;;0.60;;
44536;SDS011;30245;51.966;6.292;2023-02-28T08:38:50;1.20;;;0.63;;
44536;SDS011;30245;51.966;6.292;2023-02-28T08:41:15;2.67;;;0.57;;
44536;SDS011;30245;51.966;6.292;2023-02-28T08:43:41;2.17;;;0.60;;
44536;SDS011;30245;51.966;6.292;2023-02-28T08:46:07;1.40;;;0.77;;
44536;SDS011;30245;51.966;6.292;2023-02-28T08:48:35;1.25;;;0.70;;
44536;SDS011;30245;51.966;6.292;2023-02-28T08:51:06;1.10;;;0.40;;
44536;SDS011;30245;51.966;6.292;2023-02-28T08:53:34;1.27;;;0.43;;
44536;SDS011;30245;51.966;6.292;2023-02-28T08:56:04;2.40;;;0.50;;
44536;SDS011;30245;51.966;6.292;2023-02-28T08:58:32;1.43;;;0.53;;
44536;SDS011;30245;51.966;6.292;2023-02-28T09:00:59;0.70;;;0.40;;
44536;SDS011;30245;51.966;6.292;2023-02-28T09:03:24;1.40;;;0.80;;
44536;SDS011;30245;51.966;6.292;2023-02-28T09:05:55;2.27;;;1.00;;
44536;SDS011;30245;51.966;6.292;2023-02-28T09:08:22;1.20;;;0.40;;
44536;SDS011;30245;51.966;6.292;2023-02-28T09:10:48;0.97;;;0.30;;
44536;SDS011;30245;51.966;6.292;2023-02-28T09:13:14;0.70;;;0.50;;
44536;SDS011;30245;51.966;6.292;2023-02-28T09:15:40;2.57;;;0.30;;
44536;SDS011;30245;51.966;6.292;2023-02-28T09:18:05;1.00;;;0.37;;
44536;SDS011;30245;51.966;6.292;2023-02-28T09:20:31;0.63;;;0.30;;
44536;SDS011;30245;51.966;6.292;2023-02-28T09:22:56;0.90;;;0.30;;
44536;SDS011;30245;51.966;6.292;2023-02-28T09:25:22;0.67;;;0.30;;
44536;SDS011;30245;51.966;6.292;2023-02-28T09:27:48;0.93;;;0.27;;
44536;SDS011;30245;51.966;6.292;2023-02-28T09:30:13;0.60;;;0.30;;
44536;SDS011;30245;51.966;6.292;2023-02-28T09:32:39;0.63;;;0.30;;
44536;SDS011;30245;51.966;6.292;2023-02-28T09:35:05;2.00;;;0.20;;
44536;SDS011;30245;51.966;6.292;2023-02-28T09:37:31;0.50;;;0.20;;
44536;SDS011;30245;51.966;6.292;2023-02-28T09:39:57;0.50;;;0.20;;
44536;SDS011;30245;51.966;6.292;2023-02-28T09:42:30;2.13;;;0.23;;
44536;SDS011;30245;51.966;6.292;2023-02-28T09:44:58;1.17;;;0.20;;
44536;SDS011;30245;51.966;6.292;2023-02-28T09:47:30;1.20;;;0.80;;
44536;SDS011;30245;51.966;6.292;2023-02-28T09:49:58;0.40;;;0.10;;
44536;SDS011;30245;51.966;6.292;2023-02-28T09:52:33;0.40;;;0.20;;
44536;SDS011;30245;51.966;6.292;2023-02-28T09:55:15;0.67;;;0.30;;
44536;SDS011;30245;51.966;6.292;2023-02-28T09:57:52;0.93;;;0.20;;
44536;SDS011;30245;51.966;6.292;2023-02-28T10:00:23;0.50;;;0.20;;
44536;SDS011;30245;51.966;6.292;2023-02-28T10:05:51;0.47;;;0.13;;
44536;SDS011;30245;51.966;6.292;2023-02-28T10:10:58;1.00;;;0.20;;
44536;SDS011;30245;51.966;6.292;2023-02-28T10:13:36;0.40;;;0.20;;
44536;SDS011;30245;51.966;6.292;2023-02-28T10:16:31;0.83;;;0.30;;
44536;SDS011;30245;51.966;6.292;2023-02-28T10:19:05;4.53;;;0.23;;
44536;SDS011;30245;51.966;6.292;2023-02-28T10:21:47;1.00;;;0.20;;
44536;SDS011;30245;51.966;6.292;2023-02-28T10:24:43;0.50;;;0.23;;
44536;SDS011;30245;51.966;6.292;2023-02-28T10:27:17;0.47;;;0.13;;
44536;SDS011;30245;51.966;6.292;2023-02-28T10:29:46;0.53;;;0.20;;
44536;SDS011;30245;51.966;6.292;2023-02-28T10:32:14;0.67;;;0.20;;
44536;SDS011;30245;51.966;6.292;2023-02-28T10:34:42;0.47;;;0.30;;
44536;SDS011;30245;51.966;6.292;2023-02-28T10:37:09;0.70;;;0.10;;
44536;SDS011;30245;51.966;6.292;2023-02-28T10:39:37;0.50;;;0.20;;
44536;SDS011;30245;51.966;6.292;2023-02-28T10:42:05;1.97;;;0.30;;
44536;SDS011;30245;51.966;6.292;2023-02-28T10:45:12;0.50;;;0.20;;
44536;SDS011;30245;51.966;6.292;2023-02-28T10:50:42;0.80;;;0.20;;
44536;SDS011;30245;51.966;6.292;2023-02-28T11:01:15;0.40;;;0.20;;
44536;SDS011;30245;51.966;6.292;2023-02-28T11:03:43;0.70;;;0.20;;
44536;SDS011;30245;51.966;6.292;2023-02-28T11:06:16;0.57;;;0.20;;
44536;SDS011;30245;51.966;6.292;2023-02-28T11:08:50;1.13;;;0.40;;
44536;SDS011;30245;51.966;6.292;2023-02-28T11:11:43;2.13;;;0.30;;
44536;SDS011;30245;51.966;6.292;2023-02-28T11:14:21;0.55;;;0.20;;
44536;SDS011;30245;51.966;6.292;2023-02-28T11:16:50;0.70;;;0.30;;
44536;SDS011;30245;51.966;6.292;2023-02-28T11:19:34;0.50;;;0.20;;
44536;SDS011;30245;51.966;6.292;2023-02-28T11:22:05;0.63;;;0.30;;
44536;SDS011;30245;51.966;6.292;2023-02-28T11:24:41;0.70;;;0.30;;
44536;SDS011;30245;51.966;6.292;2023-02-28T11:29:57;0.90;;;0.30;;
44536;SDS011;30245;51.966;6.292;2023-02-28T11:32:24;1.90;;;0.27;;
44536;SDS011;30245;51.966;6.292;2023-02-28T11:35:01;0.80;;;0.40;;
44536;SDS011;30245;51.966;6.292;2023-02-28T11:37:36;0.73;;;0.30;;
44536;SDS011;30245;51.966;6.292;2023-02-28T11:40:05;0.63;;;0.30;;
44536;SDS011;30245;51.966;6.292;2023-02-28T11:48:22;0.60;;;0.27;;
44536;SDS011;30245;51.966;6.292;2023-02-28T11:51:17;1.40;;;0.63;;
44536;SDS011;30245;51.966;6.292;2023-02-28T11:54:07;1.73;;;0.50;;
44536;SDS011;30245;51.966;6.292;2023-02-28T11:57:03;0.80;;;0.40;;
44536;SDS011;30245;51.966;6.292;2023-02-28T11:59:58;1.20;;;0.33;;
44536;SDS011;30245;51.966;6.292;2023-02-28T12:05:34;1.00;;;0.23;;
44536;SDS011;30245;51.966;6.292;2023-02-28T12:22:30;0.70;;;0.40;;
44536;SDS011;30245;51.966;6.292;2023-02-28T12:27:46;0.67;;;0.30;;
44536;SDS011;30245;51.966;6.292;2023-02-28T12:30:27;0.68;;;0.40;;
44536;SDS011;30245;51.966;6.292;2023-02-28T12:32:56;0.70;;;0.20;;
44536;SDS011;30245;51.966;6.292;2023-02-28T12:35:39;0.40;;;0.20;;
44536;SDS011;30245;51.966;6.292;2023-02-28T12:38:17;0.60;;;0.20;;
44536;SDS011;30245;51.966;6.292;2023-02-28T12:40:56;0.53;;;0.30;;
44536;SDS011;30245;51.966;6.292;2023-02-28T12:43:32;0.60;;;0.10;;
44536;SDS011;30245;51.966;6.292;2023-02-28T12:46:19;0.40;;;0.20;;
44536;SDS011;30245;51.966;6.292;2023-02-28T12:48:59;0.60;;;0.40;;
44536;SDS011;30245;51.966;6.292;2023-02-28T12:51:31;0.77;;;0.20;;
44536;SDS011;30245;51.966;6.292;2023-02-28T12:54:18;0.60;;;0.37;;
44536;SDS011;30245;51.966;6.292;2023-02-28T12:59:40;0.67;;;0.30;;
44536;SDS011;30245;51.966;6.292;2023-02-28T13:05:06;0.40;;;0.20;;
44536;SDS011;30245;51.966;6.292;2023-02-28T13:10:47;0.60;;;0.20;;
44536;SDS011;30245;51.966;6.292;2023-02-28T13:13:24;1.13;;;0.10;;
44536;SDS011;30245;51.966;6.292;2023-02-28T13:18:37;0.60;;;0.20;;
44536;SDS011;30245;51.966;6.292;2023-02-28T13:21:41;1.60;;;0.30;;
44536;SDS011;30245;51.966;6.292;2023-02-28T13:24:07;2.53;;;0.30;;
44536;SDS011;30245;51.966;6.292;2023-02-28T13:34:37;0.97;;;0.27;;
44536;SDS011;30245;51.966;6.292;2023-02-28T13:37:33;0.30;;;0.20;;
44536;SDS011;30245;51.966;6.292;2023-02-28T13:42:36;0.50;;;0.20;;
44536;SDS011;30245;51.966;6.292;2023-02-28T13:45:29;1.80;;;0.40;;
44536;SDS011;30245;51.966;6.292;2023-02-28T13:47:56;0.70;;;0.20;;
44536;SDS011;30245;51.966;6.292;2023-02-28T13:50:29;2.03;;;0.20;;
44536;SDS011;30245;51.966;6.292;2023-02-28T13:59:05;0.50;;;0.20;;
44536;SDS011;30245;51.966;6.292;2023-02-28T14:07:15;1.60;;;0.27;;
44536;SDS011;30245;51.966;6.292;2023-02-28T14:09:54;0.70;;;0.40;;
44536;SDS011;30245;51.966;6.292;2023-02-28T14:18:02;0.93;;;0.20;;
44536;SDS011;30245;51.966;6.292;2023-02-28T14:20:31;2.30;;;0.30;;
44536;SDS011;30245;51.966;6.292;2023-02-28T14:23:14;0.57;;;0.20;;
44536;SDS011;30245;51.966;6.292;2023-02-28T14:31:23;1.10;;;0.20;;
44536;SDS011;30245;51.966;6.292;2023-02-28T14:36:57;2.23;;;0.40;;
44536;SDS011;30245;51.966;6.292;2023-02-28T14:39:25;1.67;;;0.63;;
44536;SDS011;30245;51.966;6.292;2023-02-28T14:41:52;2.53;;;0.30;;
44536;SDS011;30245;51.966;6.292;2023-02-28T14:44:19;0.80;;;0.30;;
44536;SDS011;30245;51.966;6.292;2023-02-28T14:46:54;1.10;;;0.30;;
44536;SDS011;30245;51.966;6.292;2023-02-28T14:49:28;1.33;;;0.20;;
44536;SDS011;30245;51.966;6.292;2023-02-28T14:52:03;0.65;;;0.20;;
44536;SDS011;30245;51.966;6.292;2023-02-28T14:54:30;1.17;;;0.30;;
44536;SDS011;30245;51.966;6.292;2023-02-28T14:56:56;0.75;;;0.32;;
44536;SDS011;30245;51.966;6.292;2023-02-28T14:59:29;0.63;;;0.20;;
44536;SDS011;30245;51.966;6.292;2023-02-28T15:04:55;0.70;;;0.35;;
44536;SDS011;30245;51.966;6.292;2023-02-28T15:07:23;0.57;;;0.25;;
44536;SDS011;30245;51.966;6.292;2023-02-28T15:10:13;0.75;;;0.20;;
44536;SDS011;30245;51.966;6.292;2023-02-28T15:12:39;0.57;;;0.30;;
44536;SDS011;30245;51.966;6.292;2023-02-28T15:15:13;1.13;;;0.20;;
44536;SDS011;30245;51.966;6.292;2023-02-28T15:17:53;2.45;;;0.20;;
44536;SDS011;30245;51.966;6.292;2023-02-28T15:22:48;0.40;;;0.10;;
44536;SDS011;30245;51.966;6.292;2023-02-28T15:25:17;3.13;;;0.17;;
44536;SDS011;30245;51.966;6.292;2023-02-28T15:27:46;0.32;;;0.13;;
44536;SDS011;30245;51.966;6.292;2023-02-28T15:30:21;2.70;;;0.35;;
44536;SDS011;30245;51.966;6.292;2023-02-28T15:35:43;0.50;;;0.25;;
44536;SDS011;30245;51.966;6.292;2023-02-28T15:40:44;0.68;;;0.28;;
44536;SDS011;30245;51.966;6.292;2023-02-28T15:43:31;1.88;;;0.20;;
44536;SDS011;30245;51.966;6.292;2023-02-28T15:46:01;0.90;;;0.40;;
44536;SDS011;30245;51.966;6.292;2023-02-28T15:48:32;2.40;;;0.60;;
44536;SDS011;30245;51.966;6.292;2023-02-28T15:51:02;1.05;;;0.40;;
44536;SDS011;30245;51.966;6.292;2023-02-28T15:53:32;0.47;;;0.28;;
44536;SDS011;30245;51.966;6.292;2023-02-28T15:56:05;0.43;;;0.20;;
44536;SDS011;30245;51.966;6.292;2023-02-28T15:58:46;1.58;;;0.40;;
44536;SDS011;30245;51.966;6.292;2023-02-28T16:01:19;0.85;;;0.38;;
44536;SDS011;30245;51.966;6.292;2023-02-28T16:04:05;0.40;;;0.20;;
44536;SDS011;30245;51.966;6.292;2023-02-28T16:06:44;0.83;;;0.40;;
44536;SDS011;30245;51.966;6.292;2023-02-28T16:09:11;1.97;;;0.27;;
44536;SDS011;30245;51.966;6.292;2023-02-28T16:11:40;0.63;;;0.10;;
44536;SDS011;30245;51.966;6.292;2023-02-28T16:14:11;0.90;;;0.40;;
44536;SDS011;30245;51.966;6.292;2023-02-28T16:16:41;1.10;;;0.40;;
44536;SDS011;30245;51.966;6.292;2023-02-28T16:19:12;0.60;;;0.30;;
44536;SDS011;30245;51.966;6.292;2023-02-28T16:21:38;0.70;;;0.30;;
44536;SDS011;30245;51.966;6.292;2023-02-28T16:24:04;0.70;;;0.30;;
44536;SDS011;30245;51.966;6.292;2023-02-28T16:26:29;0.90;;;0.50;;
44536;SDS011;30245;51.966;6.292;2023-02-28T16:28:55;1.20;;;0.40;;
44536;SDS011;30245;51.966;6.292;2023-02-28T16:31:21;0.53;;;0.30;;
44536;SDS011;30245;51.966;6.292;2023-02-28T16:33:47;1.40;;;0.30;;
44536;SDS011;30245;51.966;6.292;2023-02-28T16:36:22;1.30;;;0.40;;
44536;SDS011;30245;51.966;6.292;2023-02-28T16:38:53;0.70;;;0.30;;
44536;SDS011;30245;51.966;6.292;2023-02-28T16:41:24;0.60;;;0.30;;
44536;SDS011;30245;51.966;6.292;2023-02-28T16:43:52;0.90;;;0.40;;
44536;SDS011;30245;51.966;6.292;2023-02-28T16:46:23;0.97;;;0.40;;
44536;SDS011;30245;51.966;6.292;2023-02-28T16:51:17;1.90;;;0.40;;
44536;SDS011;30245;51.966;6.292;2023-02-28T16:53:44;0.63;;;0.30;;
44536;SDS011;30245;51.966;6.292;2023-02-28T16:56:13;1.93;;;0.50;;
44536;SDS011;30245;51.966;6.292;2023-02-28T16:58:42;0.50;;;0.33;;
44536;SDS011;30245;51.966;6.292;2023-02-28T17:01:07;0.70;;;0.40;;
44536;SDS011;30245;51.966;6.292;2023-02-28T17:03:33;1.53;;;0.33;;
44536;SDS011;30245;51.966;6.292;2023-02-28T17:06:01;2.73;;;0.40;;
44536;SDS011;30245;51.966;6.292;2023-02-28T17:08:26;0.80;;;0.50;;
44536;SDS011;30245;51.966;6.292;2023-02-28T17:10:54;4.40;;;0.40;;
44536;SDS011;30245;51.966;6.292;2023-02-28T17:13:20;1.20;;;0.50;;
44536;SDS011;30245;51.966;6.292;2023-02-28T17:15:45;0.93;;;0.60;;
44536;SDS011;30245;51.966;6.292;2023-02-28T17:18:13;3.03;;;0.63;;
44536;SDS011;30245;51.966;6.292;2023-02-28T17:23:07;1.10;;;0.60;;
44536;SDS011;30245;51.966;6.292;2023-02-28T17:25:33;0.97;;;0.57;;
44536;SDS011;30245;51.966;6.292;2023-02-28T17:27:58;1.07;;;0.40;;
44536;SDS011;30245;51.966;6.292;2023-02-28T17:30:25;1.83;;;0.30;;
44536;SDS011;30245;51.966;6.292;2023-02-28T17:32:55;0.60;;;0.30;;
44536;SDS011;30245;51.966;6.292;2023-02-28T17:35:21;1.33;;;0.50;;
44536;SDS011;30245;51.966;6.292;2023-02-28T17:37:47;1.27;;;0.50;;
44536;SDS011;30245;51.966;6.292;2023-02-28T17:40:18;0.43;;;0.30;;
44536;SDS011;30245;51.966;6.292;2023-02-28T17:42:45;1.03;;;0.40;;